createdAt,value
2023-07-25T00:01:04.197Z,35.90
2023-07-25T00:03:52.031Z,36.80
2023-07-25T00:06:38.942Z,35.03
2023-07-25T00:09:25.313Z,34.70
2023-07-25T00:12:11.942Z,36.05
2023-07-25T00:14:58.913Z,38.88
2023-07-25T00:17:45.269Z,37.67
2023-07-25T00:20:33.718Z,38.78
2023-07-25T00:23:20.476Z,38.38
2023-07-25T00:26:07.012Z,41.00
2023-07-25T00:28:53.873Z,40.13
2023-07-25T00:31:40.536Z,39.25
2023-07-25T00:34:26.926Z,38.28
2023-07-25T00:37:14.707Z,37.88
2023-07-25T00:40:01.169Z,38.50
2023-07-25T00:42:48.061Z,39.90
2023-07-25T00:45:35.324Z,37.22
2023-07-25T00:48:22.593Z,38.38
2023-07-25T00:51:09.130Z,37.55
2023-07-25T00:53:58.142Z,38.08
2023-07-25T00:56:44.647Z,38.30
2023-07-25T00:59:31.052Z,39.05
2023-07-25T01:02:18.129Z,37.30
2023-07-25T01:05:06.222Z,36.78
2023-07-25T01:07:53.017Z,39.00
2023-07-25T01:10:40.800Z,36.53
2023-07-25T01:13:27.572Z,38.17
2023-07-25T01:16:17.095Z,37.13
2023-07-25T01:19:04.152Z,32.30
2023-07-25T01:21:50.625Z,32.88
2023-07-25T01:24:43.208Z,34.72
2023-07-25T01:27:29.935Z,32.35
2023-07-25T01:30:16.764Z,34.08
2023-07-25T01:33:03.211Z,32.88
2023-07-25T01:35:50.237Z,33.30
2023-07-25T01:38:36.555Z,34.72
2023-07-25T01:41:25.007Z,31.23
2023-07-25T01:44:12.138Z,31.48
2023-07-25T01:46:58.988Z,31.60
2023-07-25T01:49:45.484Z,31.90
2023-07-25T01:52:34.354Z,29.15
2023-07-25T01:55:20.875Z,27.42
2023-07-25T01:58:08.788Z,25.88
2023-07-25T02:00:58.895Z,27.23
2023-07-25T02:03:45.821Z,25.88
2023-07-25T02:06:32.473Z,26.23
2023-07-25T02:09:19.101Z,25.65
2023-07-25T02:12:06.754Z,26.05
2023-07-25T02:14:54.673Z,24.67
2023-07-25T02:17:41.611Z,25.85
2023-07-25T02:20:28.375Z,24.50
2023-07-25T02:23:15.383Z,24.42
2023-07-25T02:26:03.105Z,25.13
2023-07-25T02:28:50.071Z,26.27
2023-07-25T02:31:38.289Z,25.63
2023-07-25T02:34:24.842Z,25.20
2023-07-25T02:37:11.433Z,23.88
2023-07-25T02:39:58.318Z,25.33
2023-07-25T02:42:44.809Z,24.83
2023-07-25T02:45:31.481Z,26.00
2023-07-25T02:48:20.291Z,25.58
2023-07-25T02:51:07.026Z,27.73
2023-07-25T02:53:54.036Z,24.33
2023-07-25T02:56:40.371Z,26.23
2023-07-25T02:59:27.238Z,26.42
2023-07-25T03:02:13.637Z,28.05
2023-07-25T03:05:01.629Z,24.58
2023-07-25T03:07:48.166Z,28.30
2023-07-25T03:10:34.754Z,27.08
2023-07-25T03:13:21.158Z,26.63
2023-07-25T03:16:08.265Z,26.92
2023-07-25T03:18:54.957Z,25.52
2023-07-25T03:21:43.144Z,29.77
2023-07-25T03:24:29.899Z,28.05
2023-07-25T03:27:16.896Z,29.45
2023-07-25T03:30:03.495Z,27.77
2023-07-25T03:32:49.980Z,32.10
2023-07-25T03:35:36.608Z,34.45
2023-07-25T03:38:24.755Z,32.92
2023-07-25T03:41:11.195Z,33.33
2023-07-25T03:43:57.557Z,32.80
2023-07-25T03:46:43.945Z,33.17
2023-07-25T03:49:30.397Z,34.47
2023-07-25T03:52:17.217Z,37.20
2023-07-25T03:55:05.266Z,34.90
2023-07-25T03:57:51.757Z,34.20
2023-07-25T04:00:39.419Z,35.50
2023-07-25T04:03:27.634Z,39.45
2023-07-25T04:06:14.907Z,40.88
2023-07-25T04:09:01.586Z,39.47
2023-07-25T04:11:49.453Z,38.90
2023-07-25T04:14:35.912Z,41.88
2023-07-25T04:17:22.877Z,41.08
2023-07-25T04:20:10.774Z,42.03
2023-07-25T04:22:59.635Z,28.35
2023-07-25T04:25:46.680Z,28.50
2023-07-25T04:28:34.615Z,32.58
2023-07-25T04:31:21.179Z,28.80
2023-07-25T04:34:07.642Z,31.25
2023-07-25T04:36:54.479Z,30.55
2023-07-25T04:39:41.368Z,31.42
2023-07-25T04:42:27.770Z,31.35
2023-07-25T04:45:15.640Z,31.58
2023-07-25T04:48:02.352Z,30.23
2023-07-25T04:50:49.198Z,31.88
2023-07-25T04:53:36.217Z,30.10
2023-07-25T04:56:22.781Z,31.70
2023-07-25T04:59:10.438Z,29.10
2023-07-25T05:01:58.967Z,27.42
2023-07-25T05:04:45.718Z,28.42
2023-07-25T05:07:32.268Z,25.45
2023-07-25T05:10:18.754Z,25.33
2023-07-25T05:13:05.328Z,23.58
2023-07-25T05:15:52.068Z,26.95
2023-07-25T05:18:40.779Z,24.80
2023-07-25T05:21:27.345Z,24.55
2023-07-25T05:24:13.985Z,23.77
2023-07-25T05:27:00.734Z,24.98
2023-07-25T05:29:47.624Z,26.92
2023-07-25T05:32:36.347Z,24.10
2023-07-25T05:35:25.584Z,26.10
2023-07-25T05:38:12.272Z,27.13
2023-07-25T05:40:59.118Z,27.55
2023-07-25T05:43:45.969Z,28.27
2023-07-25T05:46:32.348Z,28.55
2023-07-25T05:49:19.044Z,31.65
2023-07-25T05:52:07.822Z,29.92
2023-07-25T05:54:54.748Z,29.70
2023-07-25T05:57:41.212Z,30.60
2023-07-25T06:00:27.841Z,32.63
2023-07-25T06:03:16.398Z,33.58
2023-07-25T06:06:04.141Z,30.77
2023-07-25T06:08:54.354Z,26.45
2023-07-25T06:11:41.302Z,27.08
2023-07-25T06:14:28.024Z,25.08
2023-07-25T06:17:14.376Z,25.45
2023-07-25T06:20:00.801Z,25.25
2023-07-25T06:22:47.413Z,25.02
2023-07-25T06:25:35.514Z,27.20
2023-07-25T06:28:21.939Z,27.23
2023-07-25T06:31:08.805Z,28.17
2023-07-25T06:33:55.607Z,26.30
2023-07-25T06:36:42.184Z,25.83
2023-07-25T06:39:28.662Z,28.63
2023-07-25T06:42:16.386Z,28.70
2023-07-25T06:45:08.202Z,28.73
2023-07-25T06:47:55.235Z,26.05
2023-07-25T06:50:41.814Z,27.65
2023-07-25T06:53:28.371Z,25.63
2023-07-25T06:56:14.961Z,25.90
2023-07-25T06:59:02.856Z,25.55
2023-07-25T07:01:49.561Z,27.80
2023-07-25T07:04:35.861Z,28.50
2023-07-25T07:07:22.575Z,28.30
2023-07-25T07:10:09.282Z,25.52
2023-07-25T07:12:55.824Z,28.27
2023-07-25T07:15:47.153Z,23.75
2023-07-25T07:18:34.130Z,26.50
2023-07-25T07:21:20.671Z,27.80
2023-07-25T07:24:07.516Z,29.40
2023-07-25T07:26:54.113Z,29.85
2023-07-25T07:29:40.702Z,29.63
2023-07-25T07:32:28.459Z,26.73
2023-07-25T07:35:15.555Z,27.65
2023-07-25T07:38:02.069Z,26.92
2023-07-25T07:40:48.419Z,24.63
2023-07-25T07:43:34.942Z,23.52
2023-07-25T07:46:21.489Z,29.23
2023-07-25T07:49:09.218Z,29.65
2023-07-25T07:52:11.522Z,27.67
2023-07-25T07:55:02.656Z,26.63
2023-07-25T07:57:49.453Z,26.33
2023-07-25T08:00:35.963Z,24.20
2023-07-25T08:03:22.887Z,25.15
2023-07-25T08:06:10.790Z,25.00
2023-07-25T08:08:57.399Z,23.75
2023-07-25T08:11:44.425Z,24.33
2023-07-25T08:14:30.980Z,24.17
2023-07-25T08:17:17.650Z,23.77
2023-07-25T08:20:04.646Z,23.70
2023-07-25T08:22:52.380Z,21.67
2023-07-25T08:25:39.988Z,24.08
2023-07-25T08:28:26.783Z,24.05
2023-07-25T08:31:13.477Z,25.95
2023-07-25T08:34:00.073Z,24.63
2023-07-25T08:36:47.086Z,23.95
2023-07-25T08:39:34.917Z,24.63
2023-07-25T08:42:28.604Z,27.42
2023-07-25T08:45:21.043Z,29.67
2023-07-25T08:48:13.111Z,28.60
2023-07-25T08:51:03.694Z,29.83
2023-07-25T08:53:56.810Z,28.33
2023-07-25T08:56:45.974Z,28.03
2023-07-25T08:59:33.377Z,29.25
2023-07-25T09:02:20.449Z,28.73
2023-07-25T09:05:08.644Z,26.00
2023-07-25T09:08:00.021Z,26.65
2023-07-25T09:10:47.435Z,27.52
2023-07-25T09:13:35.222Z,28.63
2023-07-25T09:16:21.753Z,28.08
2023-07-25T09:19:08.495Z,26.05
2023-07-25T09:21:57.219Z,27.27
2023-07-25T09:24:44.256Z,30.58
2023-07-25T09:27:31.083Z,43.22
2023-07-25T09:30:19.088Z,41.35
2023-07-25T09:33:07.275Z,36.03
2023-07-25T09:35:54.365Z,38.53
2023-07-25T09:38:49.618Z,31.15
2023-07-25T09:41:38.735Z,35.85
2023-07-25T09:44:25.585Z,31.23
2023-07-25T09:47:14.128Z,24.50
2023-07-25T09:50:00.755Z,25.30
2023-07-25T09:52:47.165Z,27.27
2023-07-25T09:55:33.824Z,26.30
2023-07-25T09:58:21.175Z,25.05
2023-07-25T10:01:10.305Z,26.42
2023-07-25T10:03:58.435Z,24.23
2023-07-25T10:06:49.031Z,28.60
2023-07-25T10:09:36.517Z,35.60
2023-07-25T10:12:22.943Z,35.88
2023-07-25T10:15:11.291Z,34.65
2023-07-25T10:18:03.943Z,39.45
2023-07-25T10:20:53.592Z,38.33
2023-07-25T10:23:40.776Z,39.08
2023-07-25T10:26:27.672Z,37.28
2023-07-25T10:29:43.594Z,33.25
2023-07-25T10:32:47.425Z,27.60
2023-07-25T10:35:41.813Z,25.10
2023-07-25T10:38:34.644Z,29.90
2023-07-25T10:41:21.549Z,32.53
2023-07-25T10:44:08.409Z,28.40
2023-07-25T10:46:55.318Z,31.33
2023-07-25T10:49:56.277Z,32.25
2023-07-25T10:52:46.671Z,34.03
2023-07-25T10:55:34.645Z,33.75
2023-07-25T10:58:21.372Z,37.90
2023-07-25T11:01:09.449Z,40.60
2023-07-25T11:03:56.165Z,38.05
2023-07-25T11:06:42.949Z,38.20
2023-07-25T11:09:29.861Z,42.00
2023-07-25T11:12:25.315Z,758.67
2023-07-25T11:15:12.324Z,28.52
2023-07-25T11:17:59.013Z,27.70
2023-07-25T11:20:45.521Z,27.90
2023-07-25T11:23:32.338Z,26.73
2023-07-25T11:26:19.038Z,28.05
2023-07-25T11:29:08.927Z,27.40
2023-07-25T11:31:55.555Z,27.10
2023-07-25T11:34:42.055Z,757.15
2023-07-25T11:37:28.572Z,30.10
2023-07-25T11:40:17.319Z,29.52
2023-07-25T11:43:11.758Z,27.63
2023-07-25T11:45:59.807Z,29.17
2023-07-25T11:48:46.823Z,29.50
2023-07-25T11:51:34.294Z,758.70
2023-07-25T11:54:21.697Z,33.72
2023-07-25T11:57:12.177Z,757.35
2023-07-25T12:00:01.383Z,999.90
2023-07-25T12:02:49.339Z,999.90
2023-07-25T12:05:36.195Z,999.90
2023-07-25T12:08:38.478Z,999.90
2023-07-25T12:11:25.278Z,999.90
2023-07-25T12:14:13.932Z,999.90
2023-07-25T12:17:04.489Z,999.90
2023-07-25T12:19:56.218Z,999.90
2023-07-25T12:22:42.707Z,999.90
2023-07-25T12:25:30.601Z,999.90
2023-07-25T12:28:17.097Z,999.90
2023-07-25T12:31:03.533Z,999.90
2023-07-25T12:33:52.012Z,999.90
2023-07-25T12:36:40.357Z,999.90
2023-07-25T12:39:27.689Z,999.90
2023-07-25T12:42:14.227Z,999.90
2023-07-25T12:45:07.967Z,999.90
2023-07-25T12:47:57.601Z,999.90
2023-07-25T12:50:44.063Z,999.90
2023-07-25T12:53:32.029Z,999.90
2023-07-25T12:56:18.753Z,999.90
2023-07-25T12:59:05.370Z,999.90
2023-07-25T13:01:52.124Z,999.90
2023-07-25T13:04:39.212Z,999.90
2023-07-25T13:07:26.127Z,999.90
2023-07-25T13:10:13.885Z,999.90
2023-07-25T13:13:00.529Z,999.90
2023-07-25T13:15:47.072Z,999.90
2023-07-25T13:18:33.518Z,999.90
2023-07-25T13:21:20.289Z,999.90
2023-07-25T13:24:07.210Z,999.90
2023-07-25T13:26:54.990Z,999.90
2023-07-25T13:29:41.557Z,999.90
2023-07-25T13:32:28.357Z,999.90
2023-07-25T13:35:15.080Z,999.90
2023-07-25T13:38:02.297Z,999.90
2023-07-25T13:40:49.911Z,999.90
2023-07-25T13:43:37.672Z,999.90
2023-07-25T13:46:24.442Z,999.90
2023-07-25T13:49:11.061Z,999.90
2023-07-25T13:51:57.692Z,999.90
2023-07-25T13:54:45.342Z,999.90
2023-07-25T13:57:35.187Z,999.90
2023-07-25T14:00:24.743Z,999.90
2023-07-25T14:03:12.164Z,999.90
2023-07-25T14:05:58.637Z,999.90
2023-07-25T14:08:45.145Z,999.90
2023-07-25T14:11:31.877Z,999.90
2023-07-25T14:14:18.728Z,999.90
2023-07-25T14:17:08.061Z,999.90
2023-07-25T14:19:54.827Z,999.90
2023-07-25T14:22:41.884Z,999.90
2023-07-25T14:25:28.630Z,999.90
2023-07-25T14:28:15.153Z,999.90
2023-07-25T14:31:01.777Z,999.90
2023-07-25T14:33:49.626Z,999.90
2023-07-25T14:36:36.164Z,999.90
2023-07-25T14:39:22.882Z,999.90
2023-07-25T14:42:09.165Z,999.90
2023-07-25T14:44:55.845Z,999.90
2023-07-25T14:47:42.426Z,999.90
2023-07-25T14:50:30.561Z,999.90
2023-07-25T14:53:17.195Z,999.90
2023-07-25T14:56:03.617Z,999.90
2023-07-25T14:58:50.028Z,34.33
2023-07-25T15:01:36.622Z,37.33
2023-07-25T15:04:23.135Z,37.50
2023-07-25T15:07:10.983Z,34.92
2023-07-25T15:09:57.753Z,35.70
2023-07-25T15:12:45.972Z,41.97
2023-07-25T15:15:32.784Z,37.28
2023-07-25T15:18:19.336Z,34.35
2023-07-25T15:21:06.201Z,34.03
2023-07-25T15:23:53.968Z,27.08
2023-07-25T15:26:40.806Z,23.73
2023-07-25T15:29:27.165Z,24.38
2023-07-25T15:32:13.788Z,25.50
2023-07-25T15:35:01.208Z,26.48
2023-07-25T15:37:48.651Z,24.83
2023-07-25T15:40:37.854Z,24.70
2023-07-25T15:43:24.591Z,26.90
2023-07-25T15:46:11.202Z,24.38
2023-07-25T15:48:58.315Z,25.75
2023-07-25T15:51:44.929Z,24.73
2023-07-25T15:54:31.370Z,25.00
2023-07-25T15:57:19.151Z,24.20
2023-07-25T16:00:07.358Z,22.92
2023-07-25T16:02:55.148Z,22.85
2023-07-25T16:05:42.126Z,24.92
2023-07-25T16:08:28.675Z,23.92
2023-07-25T16:11:15.120Z,23.85
2023-07-25T16:14:03.368Z,24.00
2023-07-25T16:16:50.894Z,23.17
2023-07-25T16:19:37.829Z,23.45
2023-07-25T16:22:24.176Z,23.90
2023-07-25T16:25:11.190Z,23.58
2023-07-25T16:27:57.747Z,24.67
2023-07-25T16:30:45.497Z,25.20
2023-07-25T16:33:32.496Z,23.52
2023-07-25T16:36:19.159Z,25.35
2023-07-25T16:39:07.345Z,25.13
2023-07-25T16:41:55.887Z,24.55
2023-07-25T16:44:42.877Z,24.98
2023-07-25T16:47:30.957Z,25.60
2023-07-25T16:50:17.559Z,24.63
2023-07-25T16:53:06.692Z,24.77
2023-07-25T16:55:53.246Z,23.02
2023-07-25T16:58:39.617Z,24.25
2023-07-25T17:01:26.204Z,25.40
2023-07-25T17:04:14.289Z,23.42
2023-07-25T17:07:01.056Z,24.25
2023-07-25T17:09:47.510Z,25.10
2023-07-25T17:12:34.136Z,26.05
2023-07-25T17:15:21.045Z,25.20
2023-07-25T17:18:07.624Z,27.90
2023-07-25T17:20:55.557Z,29.20
2023-07-25T17:23:42.352Z,28.27
2023-07-25T17:26:28.783Z,29.40
2023-07-25T17:29:15.560Z,26.50
2023-07-25T17:32:02.254Z,27.48
2023-07-25T17:34:48.667Z,27.20
2023-07-25T17:40:27.330Z,24.65
2023-07-25T17:43:14.880Z,25.47
2023-07-25T17:46:01.289Z,24.38
2023-07-25T17:48:47.716Z,24.63
2023-07-25T17:51:34.779Z,25.63
2023-07-25T17:54:22.513Z,22.27
2023-07-25T17:57:09.113Z,24.08
2023-07-25T17:59:55.674Z,22.88
2023-07-25T18:02:42.407Z,23.48
2023-07-25T18:05:28.845Z,22.17
2023-07-25T18:08:15.883Z,24.08
2023-07-25T18:11:03.841Z,24.10
2023-07-25T18:13:51.367Z,23.10
2023-07-25T18:16:37.947Z,24.13
2023-07-25T18:19:24.627Z,24.33
2023-07-25T18:22:11.061Z,24.88
2023-07-25T18:24:58.685Z,28.23
2023-07-25T18:27:47.026Z,29.23
2023-07-25T18:30:37.007Z,27.88
2023-07-25T18:33:23.444Z,27.55
2023-07-25T18:36:09.972Z,27.55
2023-07-25T18:38:56.430Z,26.70
2023-07-25T18:41:42.991Z,26.05
2023-07-25T18:44:30.812Z,25.80
2023-07-25T18:47:33.704Z,25.13
2023-07-25T18:50:21.865Z,25.08
2023-07-25T18:53:08.212Z,25.08
2023-07-25T18:55:55.027Z,22.48
2023-07-25T18:58:41.681Z,25.58
2023-07-25T19:01:29.712Z,28.08
2023-07-25T19:04:18.348Z,28.58
2023-07-25T19:07:05.133Z,26.30
2023-07-25T19:09:51.782Z,25.65
2023-07-25T19:12:38.148Z,25.08
2023-07-25T19:15:24.823Z,26.48
2023-07-25T19:18:13.002Z,22.98
2023-07-25T19:20:59.384Z,25.52
2023-07-25T19:23:45.727Z,25.35
2023-07-25T19:26:32.183Z,24.63
2023-07-25T19:29:19.409Z,23.35
2023-07-25T19:32:07.213Z,25.40
2023-07-25T19:34:55.315Z,25.50
2023-07-25T19:37:41.754Z,25.85
2023-07-25T19:40:28.290Z,25.80
2023-07-25T19:43:15.029Z,25.15
2023-07-25T19:46:04.687Z,26.38
2023-07-25T19:48:51.572Z,26.25
2023-07-25T19:51:39.672Z,23.77
2023-07-25T19:54:26.476Z,26.58
2023-07-25T19:57:13.412Z,23.65
2023-07-25T20:00:00.169Z,24.98
2023-07-25T20:02:46.614Z,25.35
2023-07-25T20:05:33.441Z,25.80
2023-07-25T20:08:21.515Z,26.27
2023-07-25T20:11:08.577Z,25.92
2023-07-25T20:13:55.189Z,25.95
2023-07-25T20:16:42.475Z,25.15
2023-07-25T20:19:29.232Z,25.85
2023-07-25T20:22:15.660Z,25.60
2023-07-25T20:25:03.668Z,24.70
2023-07-25T20:27:50.329Z,23.60
2023-07-25T20:30:36.691Z,24.60
2023-07-25T20:33:23.937Z,25.33
2023-07-25T20:36:11.197Z,23.88
2023-07-25T20:38:57.930Z,25.25
2023-07-25T20:41:45.671Z,23.90
2023-07-25T20:44:32.196Z,23.48
2023-07-25T20:47:18.973Z,24.60
2023-07-25T20:50:06.231Z,23.33
2023-07-25T20:52:53.126Z,24.50
2023-07-25T20:55:40.588Z,23.17
2023-07-25T20:58:29.221Z,24.38
2023-07-25T21:01:15.935Z,25.10
2023-07-25T21:04:02.629Z,25.05
2023-07-25T21:06:49.141Z,23.95
2023-07-25T21:09:35.467Z,24.13
2023-07-25T21:12:22.157Z,23.02
2023-07-25T21:15:11.186Z,22.80
2023-07-25T21:18:11.045Z,23.42
2023-07-25T21:21:00.961Z,23.90
2023-07-25T21:23:50.068Z,23.15
2023-07-25T21:26:36.660Z,24.70
2023-07-25T21:29:23.080Z,24.45
2023-07-25T21:32:11.361Z,24.40
2023-07-25T21:34:58.123Z,24.73
2023-07-25T21:37:44.488Z,23.90
2023-07-25T21:40:31.387Z,23.48
2023-07-25T21:43:17.831Z,24.42
2023-07-25T21:46:04.380Z,24.88
2023-07-25T21:48:52.855Z,25.42
2023-07-25T21:51:39.510Z,25.27
2023-07-25T21:54:25.913Z,24.98
2023-07-25T21:57:12.572Z,23.52
2023-07-25T21:59:59.004Z,23.95
2023-07-25T22:02:45.590Z,25.92
2023-07-25T22:05:33.425Z,24.73
2023-07-25T22:08:19.905Z,23.55
2023-07-25T22:11:06.254Z,24.98
2023-07-25T22:13:52.812Z,24.20
2023-07-25T22:16:39.273Z,23.60
2023-07-25T22:19:25.925Z,24.98
2023-07-25T22:22:13.717Z,24.85
2023-07-25T22:25:01.119Z,26.17
2023-07-25T22:27:47.835Z,24.15
2023-07-25T22:30:35.046Z,23.00
2023-07-25T22:33:21.793Z,25.58
2023-07-25T22:36:08.179Z,24.92
2023-07-25T22:38:55.990Z,24.95
2023-07-25T22:41:42.770Z,25.55
2023-07-25T22:44:29.236Z,24.38
2023-07-25T22:47:15.818Z,25.38
2023-07-25T22:50:02.379Z,25.20
2023-07-25T22:52:50.140Z,24.50
2023-07-25T22:55:38.146Z,24.08
2023-07-25T22:58:24.822Z,25.80
2023-07-25T23:01:13.552Z,25.80
2023-07-25T23:04:02.026Z,24.55
2023-07-25T23:06:48.740Z,24.25
2023-07-25T23:09:35.669Z,24.30
2023-07-25T23:12:23.884Z,25.25
2023-07-25T23:15:12.302Z,25.80
2023-07-25T23:17:59.254Z,23.80
2023-07-25T23:20:48.522Z,25.27
2023-07-25T23:23:35.051Z,24.10
2023-07-25T23:26:21.541Z,24.38
2023-07-25T23:29:09.296Z,24.80
2023-07-25T23:31:55.884Z,25.15
2023-07-25T23:34:46.791Z,25.83
2023-07-25T23:37:33.537Z,24.70
2023-07-25T23:40:19.917Z,24.13
2023-07-25T23:43:06.781Z,24.10
2023-07-25T23:45:54.458Z,24.27
2023-07-25T23:48:41.339Z,25.10
2023-07-25T23:51:27.901Z,24.58
2023-07-25T23:54:14.221Z,26.00
2023-07-25T23:57:00.801Z,25.38
2023-07-25T23:59:47.390Z,24.90
